sensor_id;sensor_type;location;lat;lon;timestamp;temperature;humidity
4813;DHT22;2420;51.202;8.698;2024-02-26T00:01:39;1.80;1.00
4813;DHT22;2420;51.202;8.698;2024-02-26T00:04:05;1.90;1.00
4813;DHT22;2420;51.202;8.698;2024-02-26T00:06:30;1.60;1.00
4813;DHT22;2420;51.202;8.698;2024-02-26T00:08:56;1.90;1.00
4813;DHT22;2420;51.202;8.698;2024-02-26T00:11:22;1.90;1.00
4813;DHT22;2420;51.202;8.698;2024-02-26T00:13:47;1.90;1.00
4813;DHT22;2420;51.202;8.698;2024-02-26T00:16:13;1.90;1.00
4813;DHT22;2420;51.202;8.698;2024-02-26T00:18:38;1.90;1.00
4813;DHT22;2420;51.202;8.698;2024-02-26T00:21:04;2.10;1.00
4813;DHT22;2420;51.202;8.698;2024-02-26T00:23:30;2.10;1.00
4813;DHT22;2420;51.202;8.698;2024-02-26T00:25:55;1.90;1.00
4813;DHT22;2420;51.202;8.698;2024-02-26T00:28:21;1.80;1.00
4813;DHT22;2420;51.202;8.698;2024-02-26T00:30:47;1.80;1.00
4813;DHT22;2420;51.202;8.698;2024-02-26T00:33:16;2.00;1.00
4813;DHT22;2420;51.202;8.698;2024-02-26T00:35:41;2.00;1.00
4813;DHT22;2420;51.202;8.698;2024-02-26T00:38:07;2.10;1.00
4813;DHT22;2420;51.202;8.698;2024-02-26T00:40:32;2.00;1.00
4813;DHT22;2420;51.202;8.698;2024-02-26T00:42:58;1.80;1.00
4813;DHT22;2420;51.202;8.698;2024-02-26T00:45:23;2.10;1.00
4813;DHT22;2420;51.202;8.698;2024-02-26T00:47:49;2.10;1.00
4813;DHT22;2420;51.202;8.698;2024-02-26T00:50:15;2.00;1.00
4813;DHT22;2420;51.202;8.698;2024-02-26T00:52:40;2.30;1.00
4813;DHT22;2420;51.202;8.698;2024-02-26T00:55:07;2.10;1.00
4813;DHT22;2420;51.202;8.698;2024-02-26T00:57:33;2.10;1.00
4813;DHT22;2420;51.202;8.698;2024-02-26T00:59:58;2.10;1.00
4813;DHT22;2420;51.202;8.698;2024-02-26T01:02:24;2.00;1.00
4813;DHT22;2420;51.202;8.698;2024-02-26T01:04:50;2.10;1.00
4813;DHT22;2420;51.202;8.698;2024-02-26T01:07:15;2.10;1.00
4813;DHT22;2420;51.202;8.698;2024-02-26T01:09:42;2.30;1.00
4813;DHT22;2420;51.202;8.698;2024-02-26T01:12:08;2.50;1.00
4813;DHT22;2420;51.202;8.698;2024-02-26T01:14:34;2.40;1.00
4813;DHT22;2420;51.202;8.698;2024-02-26T01:16:59;2.20;1.00
4813;DHT22;2420;51.202;8.698;2024-02-26T01:19:25;2.40;1.00
4813;DHT22;2420;51.202;8.698;2024-02-26T01:21:50;2.30;1.00
4813;DHT22;2420;51.202;8.698;2024-02-26T01:24:16;2.40;1.00
4813;DHT22;2420;51.202;8.698;2024-02-26T01:26:42;2.60;1.00
4813;DHT22;2420;51.202;8.698;2024-02-26T01:29:07;2.30;1.00
4813;DHT22;2420;51.202;8.698;2024-02-26T01:31:33;2.60;1.00
4813;DHT22;2420;51.202;8.698;2024-02-26T01:33:58;2.30;1.00
4813;DHT22;2420;51.202;8.698;2024-02-26T01:36:24;2.30;1.00
4813;DHT22;2420;51.202;8.698;2024-02-26T01:38:50;2.30;1.00
4813;DHT22;2420;51.202;8.698;2024-02-26T01:41:16;2.30;1.00
4813;DHT22;2420;51.202;8.698;2024-02-26T01:43:42;2.50;1.00
4813;DHT22;2420;51.202;8.698;2024-02-26T01:46:11;2.50;1.00
4813;DHT22;2420;51.202;8.698;2024-02-26T01:48:40;2.50;1.00
4813;DHT22;2420;51.202;8.698;2024-02-26T01:51:05;2.30;1.00
4813;DHT22;2420;51.202;8.698;2024-02-26T01:53:31;2.30;1.00
4813;DHT22;2420;51.202;8.698;2024-02-26T01:55:57;2.40;1.00
4813;DHT22;2420;51.202;8.698;2024-02-26T01:58:23;2.50;1.00
4813;DHT22;2420;51.202;8.698;2024-02-26T02:00:49;2.50;1.00
4813;DHT22;2420;51.202;8.698;2024-02-26T02:03:15;2.60;1.00
4813;DHT22;2420;51.202;8.698;2024-02-26T02:05:41;2.50;1.00
4813;DHT22;2420;51.202;8.698;2024-02-26T02:08:11;2.40;1.00
4813;DHT22;2420;51.202;8.698;2024-02-26T02:10:38;2.50;1.00
4813;DHT22;2420;51.202;8.698;2024-02-26T02:13:04;2.50;1.00
4813;DHT22;2420;51.202;8.698;2024-02-26T02:15:29;2.40;1.00
4813;DHT22;2420;51.202;8.698;2024-02-26T02:17:55;2.40;1.00
4813;DHT22;2420;51.202;8.698;2024-02-26T02:20:26;2.40;1.00
4813;DHT22;2420;51.202;8.698;2024-02-26T02:22:52;2.60;1.00
4813;DHT22;2420;51.202;8.698;2024-02-26T02:25:18;2.40;1.00
4813;DHT22;2420;51.202;8.698;2024-02-26T02:27:43;2.50;1.00
4813;DHT22;2420;51.202;8.698;2024-02-26T02:30:11;2.30;1.00
4813;DHT22;2420;51.202;8.698;2024-02-26T02:32:40;2.60;1.00
4813;DHT22;2420;51.202;8.698;2024-02-26T02:35:07;2.60;1.00
4813;DHT22;2420;51.202;8.698;2024-02-26T02:37:32;2.70;1.00
4813;DHT22;2420;51.202;8.698;2024-02-26T02:39:58;2.60;1.00
4813;DHT22;2420;51.202;8.698;2024-02-26T02:42:24;2.70;1.00
4813;DHT22;2420;51.202;8.698;2024-02-26T02:44:50;2.80;1.00
4813;DHT22;2420;51.202;8.698;2024-02-26T02:47:15;2.70;1.00
4813;DHT22;2420;51.202;8.698;2024-02-26T02:49:41;2.70;1.00
4813;DHT22;2420;51.202;8.698;2024-02-26T02:52:06;2.50;1.00
4813;DHT22;2420;51.202;8.698;2024-02-26T02:54:32;2.50;1.00
4813;DHT22;2420;51.202;8.698;2024-02-26T02:56:58;2.60;1.00
4813;DHT22;2420;51.202;8.698;2024-02-26T02:59:23;2.80;1.00
4813;DHT22;2420;51.202;8.698;2024-02-26T03:01:49;2.70;1.00
4813;DHT22;2420;51.202;8.698;2024-02-26T03:04:14;2.50;1.00
4813;DHT22;2420;51.202;8.698;2024-02-26T03:06:40;2.70;1.00
4813;DHT22;2420;51.202;8.698;2024-02-26T03:09:05;2.80;1.00
4813;DHT22;2420;51.202;8.698;2024-02-26T03:11:31;2.70;1.00
4813;DHT22;2420;51.202;8.698;2024-02-26T03:13:57;2.70;1.00
4813;DHT22;2420;51.202;8.698;2024-02-26T03:16:22;2.70;1.00
4813;DHT22;2420;51.202;8.698;2024-02-26T03:18:48;2.80;1.00
4813;DHT22;2420;51.202;8.698;2024-02-26T03:21:13;2.50;1.00
4813;DHT22;2420;51.202;8.698;2024-02-26T03:23:39;2.70;1.00
4813;DHT22;2420;51.202;8.698;2024-02-26T03:26:04;2.60;1.00
4813;DHT22;2420;51.202;8.698;2024-02-26T03:28:30;2.70;1.00
4813;DHT22;2420;51.202;8.698;2024-02-26T03:30:59;2.70;1.00
4813;DHT22;2420;51.202;8.698;2024-02-26T03:33:24;2.70;1.00
4813;DHT22;2420;51.202;8.698;2024-02-26T03:35:50;2.90;1.00
4813;DHT22;2420;51.202;8.698;2024-02-26T03:38:15;2.60;1.00
4813;DHT22;2420;51.202;8.698;2024-02-26T03:40:41;2.90;1.00
4813;DHT22;2420;51.202;8.698;2024-02-26T03:43:06;2.90;1.00
4813;DHT22;2420;51.202;8.698;2024-02-26T03:45:33;2.90;1.00
4813;DHT22;2420;51.202;8.698;2024-02-26T03:47:58;2.80;1.00
4813;DHT22;2420;51.202;8.698;2024-02-26T03:50:24;2.50;1.00
4813;DHT22;2420;51.202;8.698;2024-02-26T03:52:50;2.80;1.00
4813;DHT22;2420;51.202;8.698;2024-02-26T03:55:16;2.50;1.00
4813;DHT22;2420;51.202;8.698;2024-02-26T03:57:46;2.70;1.00
4813;DHT22;2420;51.202;8.698;2024-02-26T04:00:12;2.60;1.00
4813;DHT22;2420;51.202;8.698;2024-02-26T04:02:38;2.80;1.00
4813;DHT22;2420;51.202;8.698;2024-02-26T04:05:04;2.60;1.00
4813;DHT22;2420;51.202;8.698;2024-02-26T04:07:29;3.00;1.00
4813;DHT22;2420;51.202;8.698;2024-02-26T04:09:55;2.80;1.00
4813;DHT22;2420;51.202;8.698;2024-02-26T04:12:20;2.70;1.00
4813;DHT22;2420;51.202;8.698;2024-02-26T04:14:46;3.10;1.00
4813;DHT22;2420;51.202;8.698;2024-02-26T04:17:11;2.80;1.00
4813;DHT22;2420;51.202;8.698;2024-02-26T04:19:37;2.80;1.00
4813;DHT22;2420;51.202;8.698;2024-02-26T04:22:03;2.90;1.00
4813;DHT22;2420;51.202;8.698;2024-02-26T04:24:28;2.90;1.00
4813;DHT22;2420;51.202;8.698;2024-02-26T04:26:54;2.80;1.00
4813;DHT22;2420;51.202;8.698;2024-02-26T04:29:19;3.00;1.00
4813;DHT22;2420;51.202;8.698;2024-02-26T04:31:45;2.70;1.00
4813;DHT22;2420;51.202;8.698;2024-02-26T04:34:12;2.90;1.00
4813;DHT22;2420;51.202;8.698;2024-02-26T04:36:37;3.00;1.00
4813;DHT22;2420;51.202;8.698;2024-02-26T04:39:03;3.00;1.00
4813;DHT22;2420;51.202;8.698;2024-02-26T04:41:28;2.80;1.00
4813;DHT22;2420;51.202;8.698;2024-02-26T04:43:54;2.90;1.00
4813;DHT22;2420;51.202;8.698;2024-02-26T04:46:19;3.00;1.00
4813;DHT22;2420;51.202;8.698;2024-02-26T04:48:47;3.00;1.00
4813;DHT22;2420;51.202;8.698;2024-02-26T04:51:12;2.90;1.00
4813;DHT22;2420;51.202;8.698;2024-02-26T04:53:38;2.90;1.00
4813;DHT22;2420;51.202;8.698;2024-02-26T04:56:04;3.10;1.00
4813;DHT22;2420;51.202;8.698;2024-02-26T04:58:30;2.90;1.00
4813;DHT22;2420;51.202;8.698;2024-02-26T05:00:55;2.90;1.00
4813;DHT22;2420;51.202;8.698;2024-02-26T05:03:21;2.80;1.00
4813;DHT22;2420;51.202;8.698;2024-02-26T05:05:47;2.90;1.00
4813;DHT22;2420;51.202;8.698;2024-02-26T05:08:12;3.00;1.00
4813;DHT22;2420;51.202;8.698;2024-02-26T05:10:38;2.90;1.00
4813;DHT22;2420;51.202;8.698;2024-02-26T05:13:06;3.00;1.00
4813;DHT22;2420;51.202;8.698;2024-02-26T05:15:32;2.80;1.00
4813;DHT22;2420;51.202;8.698;2024-02-26T05:17:57;2.80;1.00
4813;DHT22;2420;51.202;8.698;2024-02-26T05:20:24;2.90;1.00
4813;DHT22;2420;51.202;8.698;2024-02-26T05:22:49;2.80;1.00
4813;DHT22;2420;51.202;8.698;2024-02-26T05:25:16;3.00;1.00
4813;DHT22;2420;51.202;8.698;2024-02-26T05:30:08;2.90;1.00
4813;DHT22;2420;51.202;8.698;2024-02-26T05:32:33;2.90;1.00
4813;DHT22;2420;51.202;8.698;2024-02-26T05:34:59;2.90;1.00
4813;DHT22;2420;51.202;8.698;2024-02-26T05:37:24;3.00;1.00
4813;DHT22;2420;51.202;8.698;2024-02-26T05:39:50;2.90;1.00
4813;DHT22;2420;51.202;8.698;2024-02-26T05:42:16;3.20;1.00
4813;DHT22;2420;51.202;8.698;2024-02-26T05:44:41;3.20;1.00
4813;DHT22;2420;51.202;8.698;2024-02-26T05:47:07;3.10;1.00
4813;DHT22;2420;51.202;8.698;2024-02-26T05:49:32;3.00;1.00
4813;DHT22;2420;51.202;8.698;2024-02-26T05:51:59;3.10;1.00
4813;DHT22;2420;51.202;8.698;2024-02-26T05:54:24;3.40;1.00
4813;DHT22;2420;51.202;8.698;2024-02-26T05:56:50;3.10;1.00
4813;DHT22;2420;51.202;8.698;2024-02-26T05:59:15;3.00;1.00
4813;DHT22;2420;51.202;8.698;2024-02-26T06:01:41;2.90;1.00
4813;DHT22;2420;51.202;8.698;2024-02-26T06:04:07;2.90;1.00
4813;DHT22;2420;51.202;8.698;2024-02-26T06:06:32;3.00;1.00
4813;DHT22;2420;51.202;8.698;2024-02-26T06:08:58;3.00;1.00
4813;DHT22;2420;51.202;8.698;2024-02-26T06:11:23;2.90;1.00
4813;DHT22;2420;51.202;8.698;2024-02-26T06:13:49;3.00;1.00
4813;DHT22;2420;51.202;8.698;2024-02-26T06:16:14;3.20;1.00
4813;DHT22;2420;51.202;8.698;2024-02-26T06:18:40;3.00;1.00
4813;DHT22;2420;51.202;8.698;2024-02-26T06:21:09;3.10;1.00
4813;DHT22;2420;51.202;8.698;2024-02-26T06:23:35;2.90;1.00
4813;DHT22;2420;51.202;8.698;2024-02-26T06:26:01;3.20;1.00
4813;DHT22;2420;51.202;8.698;2024-02-26T06:28:27;2.90;1.00
4813;DHT22;2420;51.202;8.698;2024-02-26T06:30:55;3.10;1.00
4813;DHT22;2420;51.202;8.698;2024-02-26T06:33:21;2.90;1.00
4813;DHT22;2420;51.202;8.698;2024-02-26T06:35:46;3.00;1.00
4813;DHT22;2420;51.202;8.698;2024-02-26T06:38:12;3.10;1.00
4813;DHT22;2420;51.202;8.698;2024-02-26T06:40:39;3.10;1.00
4813;DHT22;2420;51.202;8.698;2024-02-26T06:43:05;3.10;1.00
4813;DHT22;2420;51.202;8.698;2024-02-26T06:45:31;2.90;1.00
4813;DHT22;2420;51.202;8.698;2024-02-26T06:47:56;3.10;1.00
4813;DHT22;2420;51.202;8.698;2024-02-26T06:50:22;3.00;1.00
4813;DHT22;2420;51.202;8.698;2024-02-26T06:52:48;3.20;1.00
4813;DHT22;2420;51.202;8.698;2024-02-26T06:55:13;2.90;1.00
4813;DHT22;2420;51.202;8.698;2024-02-26T06:57:39;3.10;1.00
4813;DHT22;2420;51.202;8.698;2024-02-26T07:00:05;2.90;1.00
4813;DHT22;2420;51.202;8.698;2024-02-26T07:02:31;3.00;1.00
4813;DHT22;2420;51.202;8.698;2024-02-26T07:04:56;3.00;1.00
4813;DHT22;2420;51.202;8.698;2024-02-26T07:07:24;3.20;1.00
4813;DHT22;2420;51.202;8.698;2024-02-26T07:09:49;3.20;1.00
4813;DHT22;2420;51.202;8.698;2024-02-26T07:12:15;3.30;1.00
4813;DHT22;2420;51.202;8.698;2024-02-26T07:14:41;3.20;1.00
4813;DHT22;2420;51.202;8.698;2024-02-26T07:17:07;3.40;1.00
4813;DHT22;2420;51.202;8.698;2024-02-26T07:19:34;3.30;1.00
4813;DHT22;2420;51.202;8.698;2024-02-26T07:21:59;3.50;1.00
4813;DHT22;2420;51.202;8.698;2024-02-26T07:24:28;3.20;1.00
4813;DHT22;2420;51.202;8.698;2024-02-26T07:26:53;3.30;1.00
4813;DHT22;2420;51.202;8.698;2024-02-26T07:29:23;3.20;1.00
4813;DHT22;2420;51.202;8.698;2024-02-26T07:31:48;3.40;1.00
4813;DHT22;2420;51.202;8.698;2024-02-26T07:34:14;3.20;1.00
4813;DHT22;2420;51.202;8.698;2024-02-26T07:36:40;3.40;1.00
4813;DHT22;2420;51.202;8.698;2024-02-26T07:39:05;3.50;1.00
4813;DHT22;2420;51.202;8.698;2024-02-26T07:41:31;3.40;1.00
4813;DHT22;2420;51.202;8.698;2024-02-26T07:43:56;3.60;1.00
4813;DHT22;2420;51.202;8.698;2024-02-26T07:46:22;3.50;1.00
4813;DHT22;2420;51.202;8.698;2024-02-26T07:48:48;3.70;1.00
4813;DHT22;2420;51.202;8.698;2024-02-26T07:51:14;3.80;1.00
4813;DHT22;2420;51.202;8.698;2024-02-26T07:53:39;3.70;1.00
4813;DHT22;2420;51.202;8.698;2024-02-26T07:56:05;3.60;1.00
4813;DHT22;2420;51.202;8.698;2024-02-26T07:58:32;3.70;1.00
4813;DHT22;2420;51.202;8.698;2024-02-26T08:00:58;3.80;1.00
4813;DHT22;2420;51.202;8.698;2024-02-26T08:03:24;3.90;1.00
4813;DHT22;2420;51.202;8.698;2024-02-26T08:05:51;3.90;1.00
4813;DHT22;2420;51.202;8.698;2024-02-26T08:08:16;4.00;1.00
4813;DHT22;2420;51.202;8.698;2024-02-26T08:10:42;4.00;1.00
4813;DHT22;2420;51.202;8.698;2024-02-26T08:13:08;3.80;1.00
4813;DHT22;2420;51.202;8.698;2024-02-26T08:15:35;3.80;1.00
4813;DHT22;2420;51.202;8.698;2024-02-26T08:18:01;4.00;1.00
4813;DHT22;2420;51.202;8.698;2024-02-26T08:20:30;4.00;1.00
4813;DHT22;2420;51.202;8.698;2024-02-26T08:22:56;3.90;1.00
4813;DHT22;2420;51.202;8.698;2024-02-26T08:25:22;4.00;1.00
4813;DHT22;2420;51.202;8.698;2024-02-26T08:27:48;4.00;1.00
4813;DHT22;2420;51.202;8.698;2024-02-26T08:30:15;4.00;1.00
4813;DHT22;2420;51.202;8.698;2024-02-26T08:32:43;4.20;1.00
4813;DHT22;2420;51.202;8.698;2024-02-26T08:35:08;4.20;1.00
4813;DHT22;2420;51.202;8.698;2024-02-26T08:37:34;4.30;1.00
4813;DHT22;2420;51.202;8.698;2024-02-26T08:39:59;4.30;1.00
4813;DHT22;2420;51.202;8.698;2024-02-26T08:42:25;4.40;1.00
4813;DHT22;2420;51.202;8.698;2024-02-26T08:44:51;4.40;1.00
4813;DHT22;2420;51.202;8.698;2024-02-26T08:47:16;4.30;1.00
4813;DHT22;2420;51.202;8.698;2024-02-26T08:49:45;4.50;1.00
4813;DHT22;2420;51.202;8.698;2024-02-26T08:52:11;4.50;1.00
4813;DHT22;2420;51.202;8.698;2024-02-26T08:54:37;4.70;1.00
4813;DHT22;2420;51.202;8.698;2024-02-26T08:57:03;4.80;1.00
4813;DHT22;2420;51.202;8.698;2024-02-26T08:59:29;4.60;1.00
4813;DHT22;2420;51.202;8.698;2024-02-26T09:01:55;4.80;1.00
4813;DHT22;2420;51.202;8.698;2024-02-26T09:04:20;4.60;1.00
4813;DHT22;2420;51.202;8.698;2024-02-26T09:06:46;4.70;1.00
4813;DHT22;2420;51.202;8.698;2024-02-26T09:09:12;4.90;1.00
4813;DHT22;2420;51.202;8.698;2024-02-26T09:11:38;4.90;1.00
4813;DHT22;2420;51.202;8.698;2024-02-26T09:14:04;5.00;1.00
4813;DHT22;2420;51.202;8.698;2024-02-26T09:16:30;5.10;1.00
4813;DHT22;2420;51.202;8.698;2024-02-26T09:18:56;5.00;1.00
4813;DHT22;2420;51.202;8.698;2024-02-26T09:21:22;5.10;1.00
4813;DHT22;2420;51.202;8.698;2024-02-26T09:23:52;5.10;1.00
4813;DHT22;2420;51.202;8.698;2024-02-26T09:26:18;5.10;1.00
4813;DHT22;2420;51.202;8.698;2024-02-26T09:28:44;5.40;1.00
4813;DHT22;2420;51.202;8.698;2024-02-26T09:31:09;5.40;1.00
4813;DHT22;2420;51.202;8.698;2024-02-26T09:33:35;5.40;1.00
4813;DHT22;2420;51.202;8.698;2024-02-26T09:36:01;5.30;1.00
4813;DHT22;2420;51.202;8.698;2024-02-26T09:38:27;5.30;1.00
4813;DHT22;2420;51.202;8.698;2024-02-26T09:40:53;5.20;1.00
4813;DHT22;2420;51.202;8.698;2024-02-26T09:43:22;5.20;1.00
4813;DHT22;2420;51.202;8.698;2024-02-26T09:45:50;5.40;1.00
4813;DHT22;2420;51.202;8.698;2024-02-26T09:48:17;5.40;1.00
4813;DHT22;2420;51.202;8.698;2024-02-26T09:50:43;5.20;1.00
4813;DHT22;2420;51.202;8.698;2024-02-26T09:53:10;5.10;1.00
4813;DHT22;2420;51.202;8.698;2024-02-26T09:55:36;5.40;1.00
4813;DHT22;2420;51.202;8.698;2024-02-26T09:58:05;5.30;1.00
4813;DHT22;2420;51.202;8.698;2024-02-26T10:00:31;5.40;1.00
4813;DHT22;2420;51.202;8.698;2024-02-26T10:03:03;5.30;1.00
4813;DHT22;2420;51.202;8.698;2024-02-26T10:05:29;5.60;1.00
4813;DHT22;2420;51.202;8.698;2024-02-26T10:07:56;5.40;1.00
4813;DHT22;2420;51.202;8.698;2024-02-26T10:10:23;5.50;1.00
4813;DHT22;2420;51.202;8.698;2024-02-26T10:12:48;5.60;1.00
4813;DHT22;2420;51.202;8.698;2024-02-26T10:15:14;5.60;1.00
4813;DHT22;2420;51.202;8.698;2024-02-26T10:17:41;5.50;1.00
4813;DHT22;2420;51.202;8.698;2024-02-26T10:20:15;5.80;1.00
4813;DHT22;2420;51.202;8.698;2024-02-26T10:22:41;5.90;1.00
4813;DHT22;2420;51.202;8.698;2024-02-26T10:25:08;5.80;1.00
4813;DHT22;2420;51.202;8.698;2024-02-26T10:27:34;5.90;1.00
4813;DHT22;2420;51.202;8.698;2024-02-26T10:30:04;5.90;1.00
4813;DHT22;2420;51.202;8.698;2024-02-26T10:32:31;6.00;1.00
4813;DHT22;2420;51.202;8.698;2024-02-26T10:34:57;6.10;1.00
4813;DHT22;2420;51.202;8.698;2024-02-26T10:37:23;5.90;1.00
4813;DHT22;2420;51.202;8.698;2024-02-26T10:39:50;6.10;1.00
4813;DHT22;2420;51.202;8.698;2024-02-26T10:42:16;6.30;1.00
4813;DHT22;2420;51.202;8.698;2024-02-26T10:44:45;6.10;1.00
4813;DHT22;2420;51.202;8.698;2024-02-26T10:47:11;6.00;1.00
4813;DHT22;2420;51.202;8.698;2024-02-26T10:49:37;6.00;1.00
4813;DHT22;2420;51.202;8.698;2024-02-26T10:52:04;6.00;1.00
4813;DHT22;2420;51.202;8.698;2024-02-26T10:54:32;6.00;1.00
4813;DHT22;2420;51.202;8.698;2024-02-26T10:57:00;6.10;1.00
4813;DHT22;2420;51.202;8.698;2024-02-26T10:59:26;5.90;1.00
4813;DHT22;2420;51.202;8.698;2024-02-26T11:01:52;6.00;1.00
4813;DHT22;2420;51.202;8.698;2024-02-26T11:04:20;5.90;1.00
4813;DHT22;2420;51.202;8.698;2024-02-26T11:06:47;6.20;1.00
4813;DHT22;2420;51.202;8.698;2024-02-26T11:09:15;6.20;1.00
4813;DHT22;2420;51.202;8.698;2024-02-26T11:11:42;6.30;1.00
4813;DHT22;2420;51.202;8.698;2024-02-26T11:14:09;6.20;1.00
4813;DHT22;2420;51.202;8.698;2024-02-26T11:16:35;6.30;1.00
4813;DHT22;2420;51.202;8.698;2024-02-26T11:19:03;6.30;1.00
4813;DHT22;2420;51.202;8.698;2024-02-26T11:21:29;6.20;1.00
4813;DHT22;2420;51.202;8.698;2024-02-26T11:24:14;6.40;1.00
4813;DHT22;2420;51.202;8.698;2024-02-26T11:26:53;6.30;1.00
4813;DHT22;2420;51.202;8.698;2024-02-26T11:29:26;6.40;1.00
4813;DHT22;2420;51.202;8.698;2024-02-26T11:31:53;6.40;1.00
4813;DHT22;2420;51.202;8.698;2024-02-26T11:34:19;6.40;1.00
4813;DHT22;2420;51.202;8.698;2024-02-26T11:36:46;6.50;1.00
4813;DHT22;2420;51.202;8.698;2024-02-26T11:39:12;6.50;1.00
4813;DHT22;2420;51.202;8.698;2024-02-26T11:41:38;6.50;1.00
4813;DHT22;2420;51.202;8.698;2024-02-26T11:44:04;6.60;1.00
4813;DHT22;2420;51.202;8.698;2024-02-26T11:46:42;6.60;1.00
4813;DHT22;2420;51.202;8.698;2024-02-26T11:49:32;6.60;1.00
4813;DHT22;2420;51.202;8.698;2024-02-26T11:51:58;6.70;1.00
4813;DHT22;2420;51.202;8.698;2024-02-26T11:59:55;6.70;1.00
4813;DHT22;2420;51.202;8.698;2024-02-26T12:02:44;6.60;1.00
4813;DHT22;2420;51.202;8.698;2024-02-26T12:05:20;6.70;1.00
4813;DHT22;2420;51.202;8.698;2024-02-26T12:07:50;6.90;1.00
4813;DHT22;2420;51.202;8.698;2024-02-26T12:10:38;6.80;1.00
4813;DHT22;2420;51.202;8.698;2024-02-26T12:13:13;6.80;1.00
4813;DHT22;2420;51.202;8.698;2024-02-26T12:15:42;6.80;1.00
4813;DHT22;2420;51.202;8.698;2024-02-26T12:18:09;6.90;1.00
4813;DHT22;2420;51.202;8.698;2024-02-26T12:20:37;6.90;1.00
4813;DHT22;2420;51.202;8.698;2024-02-26T12:23:03;7.00;1.00
4813;DHT22;2420;51.202;8.698;2024-02-26T12:25:30;7.00;1.00
4813;DHT22;2420;51.202;8.698;2024-02-26T12:27:57;7.00;1.00
4813;DHT22;2420;51.202;8.698;2024-02-26T12:30:23;7.10;1.00
4813;DHT22;2420;51.202;8.698;2024-02-26T12:32:52;7.20;1.00
4813;DHT22;2420;51.202;8.698;2024-02-26T12:35:18;7.20;1.00
4813;DHT22;2420;51.202;8.698;2024-02-26T12:37:44;7.20;1.00
4813;DHT22;2420;51.202;8.698;2024-02-26T12:40:10;7.20;1.00
4813;DHT22;2420;51.202;8.698;2024-02-26T12:42:36;7.20;1.00
4813;DHT22;2420;51.202;8.698;2024-02-26T12:45:07;7.20;1.00
4813;DHT22;2420;51.202;8.698;2024-02-26T12:47:38;7.20;1.00
4813;DHT22;2420;51.202;8.698;2024-02-26T12:50:05;7.20;1.00
4813;DHT22;2420;51.202;8.698;2024-02-26T12:52:37;7.10;1.00
4813;DHT22;2420;51.202;8.698;2024-02-26T12:55:05;7.10;1.00
4813;DHT22;2420;51.202;8.698;2024-02-26T12:57:37;7.00;1.00
4813;DHT22;2420;51.202;8.698;2024-02-26T13:00:06;7.00;1.00
4813;DHT22;2420;51.202;8.698;2024-02-26T13:02:37;7.00;1.00
4813;DHT22;2420;51.202;8.698;2024-02-26T13:05:07;7.10;1.00
4813;DHT22;2420;51.202;8.698;2024-02-26T13:07:34;7.10;1.00
4813;DHT22;2420;51.202;8.698;2024-02-26T13:10:00;7.40;1.00
4813;DHT22;2420;51.202;8.698;2024-02-26T13:12:26;7.50;1.00
4813;DHT22;2420;51.202;8.698;2024-02-26T13:15:02;7.50;1.00
4813;DHT22;2420;51.202;8.698;2024-02-26T13:17:32;7.40;1.00
4813;DHT22;2420;51.202;8.698;2024-02-26T13:19:58;7.50;1.00
4813;DHT22;2420;51.202;8.698;2024-02-26T13:22:24;7.50;1.00
4813;DHT22;2420;51.202;8.698;2024-02-26T13:24:59;7.60;1.00
4813;DHT22;2420;51.202;8.698;2024-02-26T13:27:25;7.60;1.00
4813;DHT22;2420;51.202;8.698;2024-02-26T13:32:38;7.60;1.00
4813;DHT22;2420;51.202;8.698;2024-02-26T13:35:11;7.50;1.00
4813;DHT22;2420;51.202;8.698;2024-02-26T13:37:37;7.50;1.00
4813;DHT22;2420;51.202;8.698;2024-02-26T13:40:10;7.40;1.00
4813;DHT22;2420;51.202;8.698;2024-02-26T13:42:37;7.30;1.00
4813;DHT22;2420;51.202;8.698;2024-02-26T13:45:03;7.30;1.00
4813;DHT22;2420;51.202;8.698;2024-02-26T13:47:32;7.40;1.00
4813;DHT22;2420;51.202;8.698;2024-02-26T13:49:58;7.30;1.00
4813;DHT22;2420;51.202;8.698;2024-02-26T13:52:24;7.30;1.00
4813;DHT22;2420;51.202;8.698;2024-02-26T13:54:51;7.50;1.00
4813;DHT22;2420;51.202;8.698;2024-02-26T13:57:16;7.20;1.00
4813;DHT22;2420;51.202;8.698;2024-02-26T13:59:43;7.20;1.00
4813;DHT22;2420;51.202;8.698;2024-02-26T14:02:12;7.10;1.00
4813;DHT22;2420;51.202;8.698;2024-02-26T14:04:38;6.70;1.00
4813;DHT22;2420;51.202;8.698;2024-02-26T14:07:04;7.10;1.00
4813;DHT22;2420;51.202;8.698;2024-02-26T14:09:31;7.10;1.00
4813;DHT22;2420;51.202;8.698;2024-02-26T14:11:57;7.10;1.00
4813;DHT22;2420;51.202;8.698;2024-02-26T14:14:23;7.20;1.00
4813;DHT22;2420;51.202;8.698;2024-02-26T14:16:49;7.10;1.00
4813;DHT22;2420;51.202;8.698;2024-02-26T14:19:15;7.00;1.00
4813;DHT22;2420;51.202;8.698;2024-02-26T14:21:40;7.00;1.00
4813;DHT22;2420;51.202;8.698;2024-02-26T14:24:06;7.00;1.00
4813;DHT22;2420;51.202;8.698;2024-02-26T14:26:32;7.00;1.00
4813;DHT22;2420;51.202;8.698;2024-02-26T14:28:57;7.00;1.00
4813;DHT22;2420;51.202;8.698;2024-02-26T14:31:23;7.00;1.00
4813;DHT22;2420;51.202;8.698;2024-02-26T14:33:51;6.90;1.00
4813;DHT22;2420;51.202;8.698;2024-02-26T14:36:22;7.10;1.00
4813;DHT22;2420;51.202;8.698;2024-02-26T14:38:48;7.10;1.00
4813;DHT22;2420;51.202;8.698;2024-02-26T14:41:14;7.10;1.00
4813;DHT22;2420;51.202;8.698;2024-02-26T14:43:39;7.00;1.00
4813;DHT22;2420;51.202;8.698;2024-02-26T14:46:05;7.00;1.00
4813;DHT22;2420;51.202;8.698;2024-02-26T14:48:31;7.10;1.00
4813;DHT22;2420;51.202;8.698;2024-02-26T14:50:57;7.10;1.00
4813;DHT22;2420;51.202;8.698;2024-02-26T14:53:23;7.00;1.00
4813;DHT22;2420;51.202;8.698;2024-02-26T14:55:49;7.00;1.00
4813;DHT22;2420;51.202;8.698;2024-02-26T14:58:16;7.10;1.00
4813;DHT22;2420;51.202;8.698;2024-02-26T15:00:44;7.10;1.00
4813;DHT22;2420;51.202;8.698;2024-02-26T15:03:10;6.90;1.00
4813;DHT22;2420;51.202;8.698;2024-02-26T15:05:36;7.10;1.00
4813;DHT22;2420;51.202;8.698;2024-02-26T15:08:02;7.10;1.00
4813;DHT22;2420;51.202;8.698;2024-02-26T15:10:28;7.10;1.00
4813;DHT22;2420;51.202;8.698;2024-02-26T15:12:56;7.20;1.00
4813;DHT22;2420;51.202;8.698;2024-02-26T15:15:22;7.00;1.00
4813;DHT22;2420;51.202;8.698;2024-02-26T15:17:48;6.90;1.00
4813;DHT22;2420;51.202;8.698;2024-02-26T15:20:17;6.80;1.00
4813;DHT22;2420;51.202;8.698;2024-02-26T15:22:43;6.80;1.00
4813;DHT22;2420;51.202;8.698;2024-02-26T15:25:09;6.80;1.00
4813;DHT22;2420;51.202;8.698;2024-02-26T15:27:34;6.80;1.00
4813;DHT22;2420;51.202;8.698;2024-02-26T15:30:01;6.70;1.00
4813;DHT22;2420;51.202;8.698;2024-02-26T15:32:27;6.80;1.00
4813;DHT22;2420;51.202;8.698;2024-02-26T15:34:53;6.60;1.00
4813;DHT22;2420;51.202;8.698;2024-02-26T15:37:19;6.80;1.00
4813;DHT22;2420;51.202;8.698;2024-02-26T15:39:45;6.60;1.00
4813;DHT22;2420;51.202;8.698;2024-02-26T15:42:11;6.50;1.00
4813;DHT22;2420;51.202;8.698;2024-02-26T15:44:38;6.60;1.00
4813;DHT22;2420;51.202;8.698;2024-02-26T15:47:04;6.50;1.00
4813;DHT22;2420;51.202;8.698;2024-02-26T15:49:30;6.60;1.00
4813;DHT22;2420;51.202;8.698;2024-02-26T15:51:56;6.40;1.00
4813;DHT22;2420;51.202;8.698;2024-02-26T15:54:22;6.60;1.00
4813;DHT22;2420;51.202;8.698;2024-02-26T15:56:48;6.70;1.00
4813;DHT22;2420;51.202;8.698;2024-02-26T15:59:13;6.70;1.00
4813;DHT22;2420;51.202;8.698;2024-02-26T16:01:39;6.50;1.00
4813;DHT22;2420;51.202;8.698;2024-02-26T16:04:05;6.50;1.00
4813;DHT22;2420;51.202;8.698;2024-02-26T16:06:41;6.40;1.00
4813;DHT22;2420;51.202;8.698;2024-02-26T16:09:07;6.60;1.00
4813;DHT22;2420;51.202;8.698;2024-02-26T16:11:33;6.40;1.00
4813;DHT22;2420;51.202;8.698;2024-02-26T16:19:37;6.30;1.00
4813;DHT22;2420;51.202;8.698;2024-02-26T16:22:03;6.40;1.00
4813;DHT22;2420;51.202;8.698;2024-02-26T16:24:29;6.50;1.00
4813;DHT22;2420;51.202;8.698;2024-02-26T16:26:55;6.50;1.00
4813;DHT22;2420;51.202;8.698;2024-02-26T16:29:20;6.40;1.00
4813;DHT22;2420;51.202;8.698;2024-02-26T16:31:47;6.30;1.00
4813;DHT22;2420;51.202;8.698;2024-02-26T16:34:12;6.30;1.00
4813;DHT22;2420;51.202;8.698;2024-02-26T16:36:38;6.30;1.00
4813;DHT22;2420;51.202;8.698;2024-02-26T16:39:04;6.30;1.00
4813;DHT22;2420;51.202;8.698;2024-02-26T16:41:30;6.20;1.00
4813;DHT22;2420;51.202;8.698;2024-02-26T16:43:58;6.30;1.00
4813;DHT22;2420;51.202;8.698;2024-02-26T16:46:24;6.40;1.00